Time;durP1;ratioP1;P1;durP2;ratioP2;P2;SDS_P1;SDS_P2;PMS_P1;PMS_P2;Temp;Humidity;BMP_temperature;BMP_pressure;BME280_temperature;BME280_humidity;BME280_pressure;Samples;Min_cycle;Max_cycle;Signal;HPM_P1;HPM_P2
2022/03/17 00:02:05;;;;;;;40.95;30.30;;;10.00;99.90;;;;;;5073805;28;20289;-68
2022/03/17 00:04:32;;;;;;;42.67;31.75;;;10.00;99.90;;;;;;5072544;28;20225;-69
2022/03/17 00:06:59;;;;;;;45.17;33.15;;;10.10;99.90;;;;;;5073711;28;20229;-70
2022/03/17 00:09:27;;;;;;;41.28;31.85;;;10.20;99.90;;;;;;5073823;28;20191;-69
2022/03/17 00:11:54;;;;;;;40.20;32.20;;;10.20;99.90;;;;;;5073410;28;20207;-69
2022/03/17 00:14:21;;;;;;;46.05;33.25;;;10.10;99.90;;;;;;5073260;28;20217;-68
2022/03/17 00:16:48;;;;;;;44.78;33.00;;;10.10;99.90;;;;;;5073141;28;20581;-68
2022/03/17 00:19:15;;;;;;;39.25;30.80;;;10.10;99.90;;;;;;5073151;28;20209;-69
2022/03/17 00:21:42;;;;;;;47.38;34.72;;;10.10;99.90;;;;;;5073446;28;20230;-69
2022/03/17 00:24:09;;;;;;;43.20;32.38;;;9.90;99.90;;;;;;5073205;28;20285;-69
2022/03/17 00:26:38;;;;;;;42.13;31.83;;;10.00;99.90;;;;;;5073099;28;20251;-69
2022/03/17 00:29:07;;;;;;;41.00;30.45;;;10.00;99.90;;;;;;5072932;28;20229;-69
2022/03/17 00:31:35;;;;;;;41.08;32.05;;;10.00;99.90;;;;;;5072859;28;20205;-69
2022/03/17 00:34:01;;;;;;;42.47;31.45;;;10.00;99.90;;;;;;5073161;28;20222;-70
2022/03/17 00:36:28;;;;;;;42.85;32.17;;;9.90;99.90;;;;;;5072836;28;20227;-70
2022/03/17 00:38:55;;;;;;;43.70;32.78;;;9.90;99.90;;;;;;5073067;28;20203;-70
2022/03/17 00:41:22;;;;;;;42.10;32.03;;;9.90;99.90;;;;;;5072823;28;20293;-69
2022/03/17 00:43:50;;;;;;;42.00;32.70;;;9.90;99.90;;;;;;5072522;28;20198;-67
2022/03/17 00:46:17;;;;;;;44.22;31.55;;;9.90;99.90;;;;;;5072535;28;20791;-70
2022/03/17 00:48:44;;;;;;;42.42;32.53;;;9.90;99.90;;;;;;5072995;28;20302;-70
2022/03/17 00:51:11;;;;;;;40.78;32.97;;;9.80;99.90;;;;;;5072630;28;20209;-68
2022/03/17 00:53:37;;;;;;;40.85;30.52;;;9.80;99.90;;;;;;5072740;28;20317;-68
2022/03/17 00:56:05;;;;;;;41.97;30.52;;;9.80;99.90;;;;;;5074106;28;20879;-68
2022/03/17 00:58:31;;;;;;;41.65;31.58;;;9.70;99.90;;;;;;5074662;28;20203;-68
2022/03/17 01:01:00;;;;;;;40.53;31.10;;;9.70;99.90;;;;;;5073958;28;20207;-68
2022/03/17 01:03:27;;;;;;;43.92;31.65;;;9.70;99.90;;;;;;5073723;28;20620;-68
2022/03/17 01:05:54;;;;;;;45.05;32.40;;;9.60;99.90;;;;;;5073866;28;20242;-68
2022/03/17 01:08:21;;;;;;;39.65;30.50;;;9.60;99.90;;;;;;5074361;28;20253;-68
2022/03/17 01:10:48;;;;;;;46.97;33.10;;;9.70;99.90;;;;;;5074219;28;20237;-68
2022/03/17 01:13:15;;;;;;;43.53;31.60;;;9.60;99.90;;;;;;5073901;28;20225;-68
2022/03/17 01:15:42;;;;;;;41.55;32.20;;;9.60;99.90;;;;;;5073381;28;20626;-68
2022/03/17 01:18:10;;;;;;;43.95;32.50;;;9.70;99.90;;;;;;5073613;28;20211;-68
2022/03/17 01:20:37;;;;;;;42.40;32.63;;;9.60;99.90;;;;;;5073966;28;20623;-68
2022/03/17 01:23:05;;;;;;;48.30;34.60;;;9.50;99.90;;;;;;5073669;28;20205;-68
2022/03/17 01:25:32;;;;;;;42.08;32.05;;;9.60;99.90;;;;;;5074419;28;20206;-68
2022/03/17 01:27:59;;;;;;;42.92;31.25;;;9.60;99.90;;;;;;5073294;28;20234;-69
2022/03/17 01:30:26;;;;;;;41.25;31.63;;;9.60;99.90;;;;;;5073746;28;20289;-68
2022/03/17 01:32:53;;;;;;;41.88;31.88;;;9.60;99.90;;;;;;5073173;28;20221;-68
2022/03/17 01:35:21;;;;;;;45.78;33.80;;;9.60;99.90;;;;;;5073953;28;20221;-68
2022/03/17 01:37:48;;;;;;;45.75;33.95;;;9.60;99.90;;;;;;5074092;28;20223;-68
2022/03/17 01:40:15;;;;;;;42.03;31.90;;;9.50;99.90;;;;;;5073950;28;20198;-68
2022/03/17 01:42:43;;;;;;;42.15;31.95;;;9.50;99.90;;;;;;5073541;28;20286;-68
2022/03/17 01:45:11;;;;;;;44.22;32.45;;;9.40;99.90;;;;;;5073346;28;20202;-68
2022/03/17 01:47:38;;;;;;;44.25;32.88;;;9.40;99.90;;;;;;5073798;28;20258;-68
2022/03/17 01:50:07;;;;;;;43.63;32.28;;;9.40;99.90;;;;;;5073327;28;20199;-68
2022/03/17 01:52:36;;;;;;;43.20;33.45;;;9.30;99.90;;;;;;5073750;28;20560;-68
2022/03/17 01:55:04;;;;;;;45.72;32.47;;;9.30;99.90;;;;;;5072960;28;20302;-68
2022/03/17 01:57:31;;;;;;;44.53;32.45;;;9.30;99.90;;;;;;5073529;28;20647;-68
2022/03/17 02:00:00;;;;;;;43.83;32.85;;;9.40;99.90;;;;;;5073515;28;20209;-68
2022/03/17 02:02:27;;;;;;;41.47;31.20;;;9.40;99.90;;;;;;5073774;28;20321;-68
2022/03/17 02:04:54;;;;;;;43.40;32.17;;;9.30;99.90;;;;;;5072885;28;20205;-68
2022/03/17 02:07:21;;;;;;;41.30;33.40;;;9.30;99.90;;;;;;5073736;28;20314;-68
2022/03/17 02:09:50;;;;;;;42.03;31.80;;;9.40;99.90;;;;;;5073057;28;20663;-68
2022/03/17 02:15:04;;;;;;;42.20;30.77;;;9.30;99.90;;;;;;5073213;28;20197;-68
2022/03/17 02:17:32;;;;;;;45.97;32.88;;;9.40;99.90;;;;;;5073070;28;20619;-68
2022/03/17 02:20:00;;;;;;;46.55;33.55;;;9.30;99.90;;;;;;5073108;28;20225;-68
2022/03/17 02:22:29;;;;;;;45.33;34.08;;;9.30;99.90;;;;;;5072974;28;20203;-68
2022/03/17 02:27:45;;;;;;;48.47;34.38;;;9.20;99.90;;;;;;5075036;28;20276;-68
2022/03/17 02:30:13;;;;;;;44.60;31.55;;;9.20;99.90;;;;;;5077092;28;20210;-68
2022/03/17 02:32:40;;;;;;;46.40;33.45;;;9.20;99.90;;;;;;5076917;28;20236;-68
2022/03/17 02:35:09;;;;;;;44.88;32.38;;;9.20;99.90;;;;;;5076357;28;20649;-68
2022/03/17 02:37:37;;;;;;;43.75;31.95;;;9.20;99.90;;;;;;5076987;28;20226;-68
2022/03/17 02:40:08;;;;;;;46.28;33.70;;;9.20;99.90;;;;;;5076729;28;20213;-67
2022/03/17 02:42:35;;;;;;;43.38;32.33;;;9.30;99.90;;;;;;5076905;28;20220;-67
2022/03/17 02:45:04;;;;;;;44.42;30.98;;;9.30;99.90;;;;;;5076031;28;20202;-68
2022/03/17 02:47:31;;;;;;;39.00;29.58;;;9.30;99.90;;;;;;5076556;28;20317;-68
2022/03/17 02:49:59;;;;;;;42.90;31.65;;;9.30;99.90;;;;;;5076574;28;20229;-68
2022/03/17 02:52:27;;;;;;;43.10;31.77;;;9.40;99.90;;;;;;5076190;28;20572;-67
2022/03/17 02:54:54;;;;;;;42.35;31.40;;;9.40;99.90;;;;;;5075990;28;20213;-67
2022/03/17 02:57:22;;;;;;;42.80;30.30;;;9.40;99.90;;;;;;5076590;28;20238;-68
2022/03/17 02:59:50;;;;;;;40.88;31.20;;;9.40;99.90;;;;;;5076029;28;20209;-68
2022/03/17 03:02:17;;;;;;;43.75;31.75;;;9.40;99.90;;;;;;5076310;28;20209;-68
2022/03/17 03:04:43;;;;;;;40.58;29.35;;;9.40;99.90;;;;;;5075856;28;20207;-68
2022/03/17 03:07:10;;;;;;;43.35;31.85;;;9.50;99.90;;;;;;5075738;28;20313;-67
2022/03/17 03:09:37;;;;;;;41.90;29.85;;;9.50;99.90;;;;;;5076384;28;20202;-68
2022/03/17 03:12:05;;;;;;;43.45;31.23;;;9.60;99.90;;;;;;5075970;28;20248;-68
2022/03/17 03:14:33;;;;;;;39.60;29.77;;;9.60;99.90;;;;;;5075778;28;20233;-68
2022/03/17 03:17:00;;;;;;;42.60;30.60;;;9.60;99.90;;;;;;5076188;28;20222;-68
2022/03/17 03:19:27;;;;;;;43.83;31.30;;;9.70;99.90;;;;;;5076117;28;20545;-67
2022/03/17 03:21:54;;;;;;;41.58;30.67;;;9.70;99.90;;;;;;5076310;28;20199;-68
2022/03/17 03:24:21;;;;;;;45.30;32.80;;;9.70;99.90;;;;;;5075390;28;20295;-68
2022/03/17 03:26:48;;;;;;;43.92;32.45;;;9.80;99.90;;;;;;5075822;28;20728;-68
2022/03/17 03:29:21;;;;;;;44.17;31.20;;;9.80;99.90;;;;;;5075530;28;20302;-68
2022/03/17 03:31:50;;;;;;;43.95;31.63;;;9.80;99.90;;;;;;5075879;28;20336;-68
2022/03/17 03:34:16;;;;;;;44.60;31.90;;;9.80;99.90;;;;;;5075555;28;20219;-68
2022/03/17 03:39:27;;;;;;;41.08;30.55;;;9.80;99.90;;;;;;5075247;28;20218;-68
2022/03/17 03:41:54;;;;;;;41.90;31.73;;;9.80;99.90;;;;;;5075350;28;20656;-68
2022/03/17 03:44:21;;;;;;;43.45;31.50;;;9.90;99.90;;;;;;5075132;28;20242;-68
2022/03/17 03:46:50;;;;;;;44.45;31.00;;;9.90;99.90;;;;;;5075240;28;20265;-68
2022/03/17 03:49:17;;;;;;;42.10;30.00;;;9.90;99.90;;;;;;5075952;28;20203;-68
2022/03/17 03:51:43;;;;;;;43.63;30.85;;;9.90;99.90;;;;;;5075186;28;20203;-68
2022/03/17 03:54:19;;;;;;;41.65;30.17;;;9.90;99.90;;;;;;5074987;28;20229;-68
2022/03/17 03:56:47;;;;;;;39.72;29.98;;;9.90;99.90;;;;;;5075223;28;20316;-68
2022/03/17 03:59:17;;;;;;;42.65;31.13;;;9.90;99.90;;;;;;5075278;28;20665;-68
2022/03/17 04:01:44;;;;;;;43.00;31.85;;;10.00;99.90;;;;;;5075357;28;20289;-68
2022/03/17 04:04:16;;;;;;;40.45;30.40;;;10.00;99.90;;;;;;5074442;28;20294;-67
2022/03/17 04:06:44;;;;;;;45.45;31.20;;;10.00;99.90;;;;;;5075377;28;20280;-68
2022/03/17 04:09:12;;;;;;;44.17;30.85;;;10.00;99.90;;;;;;5074877;28;20641;-68
2022/03/17 04:11:39;;;;;;;44.80;30.75;;;9.90;99.90;;;;;;5074366;28;20207;-68
2022/03/17 04:14:06;;;;;;;43.80;31.15;;;10.00;99.90;;;;;;5074548;28;20222;-67
2022/03/17 04:16:33;;;;;;;40.58;30.33;;;10.00;99.90;;;;;;5075164;28;20605;-68
2022/03/17 04:19:00;;;;;;;40.00;29.50;;;9.90;99.90;;;;;;5074712;28;20534;-68
2022/03/17 04:21:28;;;;;;;41.97;30.40;;;10.00;99.90;;;;;;5074774;28;20576;-68
2022/03/17 04:23:55;;;;;;;42.60;30.92;;;10.00;99.90;;;;;;5074165;28;20290;-68
2022/03/17 04:26:22;;;;;;;44.20;32.58;;;10.00;99.90;;;;;;5074300;28;20227;-68
2022/03/17 04:28:49;;;;;;;41.03;29.63;;;10.00;99.90;;;;;;5074277;28;20301;-69
2022/03/17 04:31:15;;;;;;;43.33;31.52;;;10.00;99.90;;;;;;5074356;28;20293;-67
2022/03/17 04:33:42;;;;;;;42.40;30.65;;;10.00;99.90;;;;;;5074229;28;20222;-68
2022/03/17 04:36:11;;;;;;;46.60;32.65;;;9.90;99.90;;;;;;5074265;28;20272;-68
2022/03/17 04:38:40;;;;;;;45.05;31.45;;;9.90;99.90;;;;;;5074751;28;20206;-67
2022/03/17 04:41:08;;;;;;;42.78;30.40;;;9.80;99.90;;;;;;5074625;28;20203;-68
2022/03/17 04:43:35;;;;;;;40.95;29.52;;;9.80;99.90;;;;;;5073730;28;20209;-67
2022/03/17 04:46:02;;;;;;;41.28;31.60;;;9.80;99.90;;;;;;5074094;28;20277;-68
2022/03/17 04:48:28;;;;;;;47.13;32.42;;;9.80;99.90;;;;;;5074105;28;20657;-68
2022/03/17 04:50:55;;;;;;;42.25;31.20;;;9.80;99.90;;;;;;5074198;28;20205;-68
2022/03/17 04:53:29;;;;;;;40.53;30.52;;;9.70;99.90;;;;;;5074129;28;20213;-68
2022/03/17 04:55:59;;;;;;;46.38;31.92;;;9.80;99.90;;;;;;5074282;28;20640;-68
2022/03/17 04:58:27;;;;;;;45.10;31.98;;;9.70;99.90;;;;;;5073981;28;20244;-68
2022/03/17 05:00:54;;;;;;;42.17;31.30;;;9.60;99.90;;;;;;5073889;28;20253;-68
2022/03/17 05:03:21;;;;;;;45.97;32.70;;;9.50;99.90;;;;;;5073862;28;20289;-68
2022/03/17 05:05:48;;;;;;;41.38;30.40;;;9.60;99.90;;;;;;5074372;28;20214;-68
2022/03/17 05:08:15;;;;;;;41.35;30.55;;;9.70;99.90;;;;;;5074669;28;20540;-68
2022/03/17 05:10:43;;;;;;;44.03;32.03;;;9.80;99.90;;;;;;5074238;28;20572;-68
2022/03/17 05:13:13;;;;;;;42.80;31.23;;;9.70;99.90;;;;;;5073309;28;20202;-68
2022/03/17 05:15:40;;;;;;;42.88;31.33;;;9.80;99.90;;;;;;5073874;28;20209;-68
2022/03/17 05:18:08;;;;;;;44.30;31.35;;;9.90;99.90;;;;;;5073918;28;20669;-68
2022/03/17 05:20:36;;;;;;;41.92;31.52;;;9.80;99.90;;;;;;5074070;28;20351;-68
2022/03/17 05:23:04;;;;;;;40.80;30.02;;;9.80;99.90;;;;;;5073956;28;20293;-68
2022/03/17 05:25:32;;;;;;;44.88;31.52;;;9.90;99.90;;;;;;5073804;28;20207;-67
2022/03/17 05:27:59;;;;;;;42.75;30.15;;;9.80;99.90;;;;;;5073642;28;20235;-67
2022/03/17 05:30:34;;;;;;;44.33;32.58;;;9.90;99.90;;;;;;5073799;28;20202;-68
2022/03/17 05:33:01;;;;;;;46.35;31.90;;;9.90;99.90;;;;;;5073804;28;20213;-68
2022/03/17 05:35:29;;;;;;;41.65;30.25;;;10.00;99.90;;;;;;5073898;28;20226;-68
2022/03/17 05:37:56;;;;;;;42.25;31.20;;;10.00;99.90;;;;;;5073538;28;20564;-68
2022/03/17 05:40:23;;;;;;;44.47;32.15;;;10.00;99.90;;;;;;5073366;28;20293;-68
2022/03/17 05:42:53;;;;;;;45.15;31.75;;;9.90;99.90;;;;;;5073512;28;20199;-68
2022/03/17 05:45:20;;;;;;;44.63;31.95;;;10.00;99.90;;;;;;5072998;28;20298;-67
2022/03/17 05:47:49;;;;;;;44.70;31.65;;;9.90;99.90;;;;;;5074040;28;20557;-68
2022/03/17 05:50:20;;;;;;;43.42;31.23;;;10.00;99.90;;;;;;5073819;28;20558;-68
2022/03/17 05:52:48;;;;;;;47.65;32.97;;;10.00;99.90;;;;;;5073297;28;20202;-67
2022/03/17 05:55:17;;;;;;;42.08;30.40;;;10.00;99.90;;;;;;5073316;28;20222;-68
2022/03/17 05:57:46;;;;;;;44.42;32.53;;;9.90;99.90;;;;;;5073725;28;20224;-67
2022/03/17 06:00:16;;;;;;;47.20;32.92;;;9.90;99.90;;;;;;5073633;28;20210;-68
2022/03/17 06:02:43;;;;;;;46.72;32.08;;;9.90;99.90;;;;;;5075569;28;20206;-67
2022/03/17 06:05:13;;;;;;;44.47;31.98;;;10.00;99.90;;;;;;5077122;28;20203;-68
2022/03/17 06:07:40;;;;;;;43.90;31.05;;;10.00;99.90;;;;;;5076968;28;20582;-68
2022/03/17 06:10:09;;;;;;;44.17;31.13;;;10.00;99.90;;;;;;5077372;28;20198;-68
2022/03/17 06:12:36;;;;;;;42.70;30.65;;;10.10;99.90;;;;;;5077437;28;20203;-68
2022/03/17 06:15:03;;;;;;;48.28;33.88;;;10.00;99.90;;;;;;5077131;28;20219;-68
2022/03/17 06:17:40;;;;;;;45.88;33.05;;;9.70;99.90;;;;;;5076513;28;20314;-67
2022/03/17 06:20:09;;;;;;;42.83;32.03;;;9.60;99.90;;;;;;5077049;28;20203;-68
2022/03/17 06:22:39;;;;;;;44.92;32.85;;;9.50;99.90;;;;;;5077118;28;20199;-68
2022/03/17 06:25:07;;;;;;;49.28;32.40;;;9.40;99.90;;;;;;5076917;28;20289;-67
2022/03/17 06:27:35;;;;;;;47.17;31.88;;;9.40;99.90;;;;;;5076417;28;20237;-68
2022/03/17 06:30:02;;;;;;;47.85;31.65;;;9.50;99.90;;;;;;5076679;28;20214;-67
2022/03/17 06:32:29;;;;;;;46.53;31.08;;;9.50;99.90;;;;;;5078803;28;20203;-68
2022/03/17 06:34:56;;;;;;;45.88;33.25;;;9.60;99.90;;;;;;5085688;28;20222;-69
2022/03/17 06:37:23;;;;;;;44.35;31.35;;;9.60;99.90;;;;;;5095948;28;20226;-70
2022/03/17 06:39:51;;;;;;;45.15;32.00;;;9.70;99.90;;;;;;5095787;28;20742;-67
2022/03/17 06:42:18;;;;;;;46.17;31.05;;;9.70;99.90;;;;;;5095678;28;20660;-68
2022/03/17 06:44:45;;;;;;;45.17;31.80;;;9.60;99.90;;;;;;5095565;28;20288;-68
2022/03/17 06:47:12;;;;;;;47.40;32.10;;;9.80;99.90;;;;;;5095403;28;20222;-68
2022/03/17 06:49:38;;;;;;;42.05;30.38;;;9.90;99.90;;;;;;5095679;28;20217;-68
2022/03/17 06:52:05;;;;;;;42.67;31.60;;;10.00;99.90;;;;;;5095742;28;20205;-68
2022/03/17 06:54:32;;;;;;;53.00;36.63;;;10.10;99.90;;;;;;5095192;28;20225;-68
2022/03/17 06:57:00;;;;;;;44.03;32.78;;;10.20;99.90;;;;;;5095074;28;20314;-68
2022/03/17 06:59:27;;;;;;;44.72;32.72;;;10.20;99.90;;;;;;5095617;28;20206;-67
2022/03/17 07:01:54;;;;;;;44.40;32.40;;;10.20;99.90;;;;;;5095629;28;20234;-67
2022/03/17 07:04:21;;;;;;;45.17;33.50;;;10.30;99.90;;;;;;5095211;28;20198;-67
2022/03/17 07:06:47;;;;;;;43.70;32.35;;;10.40;99.90;;;;;;5095218;28;20218;-68
2022/03/17 07:09:15;;;;;;;45.75;34.00;;;10.50;99.90;;;;;;5095216;28;20391;-68
2022/03/17 07:11:42;;;;;;;44.25;30.70;;;10.40;99.90;;;;;;5096088;28;20210;-68
2022/03/17 07:14:10;;;;;;;41.67;30.92;;;10.50;99.90;;;;;;5095656;28;20225;-68
2022/03/17 07:16:37;;;;;;;44.33;31.52;;;10.50;99.90;;;;;;5095855;28;20729;-67
2022/03/17 07:19:04;;;;;;;43.40;31.77;;;10.60;99.90;;;;;;5096641;28;20288;-67
2022/03/17 07:21:31;;;;;;;44.42;32.17;;;10.60;99.90;;;;;;5096459;28;20202;-67
2022/03/17 07:23:58;;;;;;;45.35;33.75;;;10.70;99.90;;;;;;5095990;28;20297;-68
2022/03/17 07:26:24;;;;;;;58.92;41.92;;;10.70;99.90;;;;;;5095757;28;20226;-68
2022/03/17 07:28:53;;;;;;;52.22;38.30;;;10.70;99.90;;;;;;5095886;28;20686;-67
2022/03/17 07:31:21;;;;;;;46.30;34.00;;;10.70;99.90;;;;;;5095761;28;20545;-68
2022/03/17 07:33:49;;;;;;;49.30;34.33;;;10.80;99.90;;;;;;5095710;28;20210;-68
2022/03/17 07:36:16;;;;;;;45.38;32.85;;;10.80;99.90;;;;;;5095973;28;20264;-68
2022/03/17 07:38:43;;;;;;;44.38;32.92;;;10.50;99.90;;;;;;5095709;28;20206;-67
2022/03/17 07:41:10;;;;;;;45.63;34.30;;;10.60;99.90;;;;;;5095780;28;20293;-67
2022/03/17 07:43:36;;;;;;;51.65;33.75;;;10.50;99.90;;;;;;5095432;28;20202;-68
2022/03/17 07:46:03;;;;;;;47.20;33.67;;;10.50;99.90;;;;;;5095782;28;20640;-68
2022/03/17 07:48:31;;;;;;;47.10;32.40;;;10.60;99.90;;;;;;5096096;28;20205;-68
2022/03/17 07:50:58;;;;;;;45.00;33.58;;;10.50;99.90;;;;;;5095395;28;20214;-68
2022/03/17 07:53:25;;;;;;;46.97;33.58;;;10.70;99.90;;;;;;5095280;28;20305;-68
2022/03/17 07:55:55;;;;;;;42.25;33.20;;;10.70;99.90;;;;;;5095085;28;20567;-68
2022/03/17 07:58:23;;;;;;;45.35;31.88;;;10.70;99.90;;;;;;5095695;28;20202;-68
2022/03/17 08:00:51;;;;;;;44.78;33.13;;;10.60;99.90;;;;;;5095599;28;20220;-68
2022/03/17 08:03:18;;;;;;;43.97;32.60;;;10.70;99.90;;;;;;5095442;28;20204;-68
2022/03/17 08:05:47;;;;;;;45.75;34.10;;;10.80;99.90;;;;;;5095048;28;20202;-68
2022/03/17 08:08:14;;;;;;;45.90;32.92;;;10.90;99.90;;;;;;5094971;28;20206;-68
2022/03/17 08:10:41;;;;;;;46.35;34.08;;;11.00;99.90;;;;;;5095258;28;20208;-68
2022/03/17 08:13:09;;;;;;;46.83;34.15;;;10.90;99.90;;;;;;5095076;28;20202;-68
2022/03/17 08:15:36;;;;;;;48.22;33.83;;;11.00;99.90;;;;;;5095201;28;20317;-68
2022/03/17 08:18:03;;;;;;;47.85;35.42;;;11.00;99.90;;;;;;5095617;28;20202;-68
2022/03/17 08:20:30;;;;;;;46.70;35.20;;;11.00;99.90;;;;;;5094678;28;20644;-68
2022/03/17 08:22:58;;;;;;;43.05;33.38;;;11.10;99.90;;;;;;5094966;28;20204;-67
2022/03/17 08:25:25;;;;;;;44.85;33.38;;;11.20;99.90;;;;;;5094193;28;20237;-68
2022/03/17 08:27:54;;;;;;;44.83;33.05;;;11.20;99.90;;;;;;5095092;28;20240;-68
2022/03/17 08:30:21;;;;;;;47.15;34.58;;;11.30;99.90;;;;;;5095103;28;20206;-68
2022/03/17 08:32:51;;;;;;;46.60;34.47;;;11.30;99.90;;;;;;5095043;28;20298;-68
2022/03/17 08:35:17;;;;;;;44.88;34.42;;;11.40;99.90;;;;;;5094467;28;20218;-68
2022/03/17 08:37:46;;;;;;;44.20;33.92;;;11.40;99.90;;;;;;5094872;28;20562;-68
2022/03/17 08:40:15;;;;;;;45.47;33.33;;;11.50;99.90;;;;;;5094684;28;20206;-68
2022/03/17 08:42:42;;;;;;;47.72;35.85;;;11.60;99.90;;;;;;5094537;28;20292;-68
2022/03/17 08:50:40;;;;;;;42.17;32.55;;;11.60;99.90;;;;;;5094818;28;20204;-68
2022/03/17 08:53:07;;;;;;;47.00;34.28;;;11.60;99.90;;;;;;5094470;28;20289;-68
2022/03/17 08:55:36;;;;;;;46.00;34.65;;;11.70;99.90;;;;;;5094091;28;20324;-68
2022/03/17 08:58:03;;;;;;;47.42;34.85;;;11.70;99.90;;;;;;5094240;28;20198;-68
2022/03/17 09:00:31;;;;;;;43.63;33.05;;;11.70;99.90;;;;;;5094201;28;20233;-68
2022/03/17 09:03:01;;;;;;;45.95;34.58;;;11.70;99.90;;;;;;5093976;28;20202;-67
2022/03/17 09:05:28;;;;;;;47.15;35.85;;;11.70;99.90;;;;;;5094234;28;20285;-68
2022/03/17 09:07:55;;;;;;;49.67;35.45;;;11.70;99.90;;;;;;5094757;28;20291;-67
2022/03/17 09:10:24;;;;;;;48.13;35.25;;;11.70;99.90;;;;;;5094339;28;20327;-68
2022/03/17 09:12:55;;;;;;;46.13;33.33;;;11.70;99.90;;;;;;5094184;28;20560;-68
2022/03/17 09:15:22;;;;;;;42.92;33.10;;;11.70;99.90;;;;;;5093856;28;20210;-68
2022/03/17 09:17:49;;;;;;;44.88;34.72;;;11.90;99.90;;;;;;5094505;28;20635;-68
2022/03/17 09:20:16;;;;;;;47.20;36.58;;;11.90;99.90;;;;;;5093858;28;20224;-68
2022/03/17 09:22:43;;;;;;;47.15;34.80;;;11.70;99.90;;;;;;5094380;28;20206;-68
2022/03/17 09:25:11;;;;;;;49.08;35.03;;;11.60;99.90;;;;;;5093518;28;20234;-68
2022/03/17 09:27:38;;;;;;;51.13;34.03;;;11.50;99.90;;;;;;5093509;28;20229;-69
2022/03/17 09:30:07;;;;;;;46.17;34.75;;;11.60;99.90;;;;;;5093947;28;20723;-68
2022/03/17 09:32:35;;;;;;;45.10;34.67;;;11.70;99.90;;;;;;5094343;28;20206;-68
2022/03/17 09:35:02;;;;;;;46.10;32.72;;;11.70;99.90;;;;;;5093483;28;20256;-68
2022/03/17 09:37:29;;;;;;;43.90;32.92;;;11.80;99.90;;;;;;5099882;28;20593;-68
2022/03/17 09:39:56;;;;;;;44.10;34.20;;;12.00;99.90;;;;;;5100564;28;20202;-68
2022/03/17 09:42:23;;;;;;;45.40;30.95;;;12.10;99.90;;;;;;5100685;28;20600;-68
2022/03/17 09:44:52;;;;;;;45.65;33.75;;;12.20;99.90;;;;;;5100185;28;20288;-68
2022/03/17 09:47:22;;;;;;;46.58;34.70;;;12.30;99.90;;;;;;5100138;28;20321;-68
2022/03/17 09:49:52;;;;;;;45.88;35.13;;;12.30;99.90;;;;;;5101087;28;20208;-68
2022/03/17 09:52:20;;;;;;;45.38;34.97;;;12.30;99.90;;;;;;5101170;28;20218;-68
2022/03/17 09:54:48;;;;;;;44.03;32.72;;;12.40;99.90;;;;;;5100379;28;20202;-68
2022/03/17 09:57:16;;;;;;;46.13;34.95;;;12.40;99.90;;;;;;5100700;28;20229;-68
2022/03/17 09:59:44;;;;;;;48.95;34.83;;;12.50;99.90;;;;;;5100141;28;20743;-68
2022/03/17 10:02:16;;;;;;;47.45;34.88;;;12.40;99.90;;;;;;5100679;28;20209;-68
2022/03/17 10:04:45;;;;;;;48.00;34.92;;;12.30;99.90;;;;;;5100175;28;20202;-68
2022/03/17 10:07:11;;;;;;;48.70;33.65;;;12.30;99.90;;;;;;5100277;28;20226;-67
2022/03/17 10:09:38;;;;;;;43.72;33.70;;;12.40;99.90;;;;;;5100453;28;20202;-68
2022/03/17 10:12:08;;;;;;;45.03;33.35;;;12.40;99.90;;;;;;5100371;28;20206;-68
2022/03/17 10:14:37;;;;;;;44.38;33.08;;;12.50;99.90;;;;;;5099824;28;20202;-68
2022/03/17 10:17:05;;;;;;;48.40;34.72;;;12.60;99.90;;;;;;5099955;28;20226;-68
2022/03/17 10:19:33;;;;;;;43.13;33.08;;;12.70;99.90;;;;;;5100219;28;20198;-68
2022/03/17 10:22:12;;;;;;;47.90;35.35;;;12.70;99.90;;;;;;5100244;28;20198;-68
2022/03/17 10:24:50;;;;;;;44.50;33.38;;;12.70;99.90;;;;;;5099892;28;20202;-68
2022/03/17 10:27:36;;;;;;;45.17;34.30;;;12.70;99.90;;;;;;5099931;28;20221;-68
2022/03/17 10:30:06;;;;;;;47.00;34.78;;;12.70;99.90;;;;;;5100221;28;20202;-68
2022/03/17 10:32:33;;;;;;;46.95;34.88;;;12.70;99.90;;;;;;5100282;28;20271;-68
2022/03/17 10:35:00;;;;;;;44.80;34.70;;;12.60;99.90;;;;;;5100098;28;20543;-68
2022/03/17 10:37:30;;;;;;;46.47;34.53;;;12.70;99.90;;;;;;5100551;28;20222;-68
2022/03/17 10:39:59;;;;;;;46.65;35.28;;;12.70;99.90;;;;;;5099674;28;20204;-68
2022/03/17 10:42:28;;;;;;;48.30;35.50;;;12.80;99.90;;;;;;5100183;28;20206;-68
2022/03/17 10:44:58;;;;;;;46.70;34.47;;;12.80;99.90;;;;;;5099754;28;20202;-68
2022/03/17 10:47:26;;;;;;;47.97;34.70;;;12.80;99.90;;;;;;5099048;28;20576;-68
2022/03/17 10:50:06;;;;;;;44.90;35.22;;;12.90;99.90;;;;;;5097065;28;20202;-68
2022/03/17 10:52:49;;;;;;;46.67;35.17;;;12.90;99.90;;;;;;5096892;28;20556;-68
2022/03/17 10:55:21;;;;;;;46.92;35.25;;;12.90;99.90;;;;;;5096529;28;20198;-68
2022/03/17 10:57:48;;;;;;;47.42;35.75;;;13.00;99.90;;;;;;5096787;28;20313;-68
2022/03/17 11:00:25;;;;;;;46.90;36.92;;;13.00;99.90;;;;;;5096854;28;20300;-68
2022/03/17 11:02:57;;;;;;;46.05;36.03;;;13.00;99.90;;;;;;5096425;28;20209;-68
2022/03/17 11:05:24;;;;;;;46.85;33.70;;;12.70;99.90;;;;;;5096451;28;20297;-68
2022/03/17 11:07:54;;;;;;;49.15;35.63;;;12.30;99.90;;;;;;5096654;28;20221;-68
2022/03/17 11:10:23;;;;;;;62.97;45.45;;;12.40;99.90;;;;;;5096655;28;20544;-68
2022/03/17 11:12:50;;;;;;;49.22;35.30;;;12.50;99.90;;;;;;5096621;28;20202;-68
2022/03/17 11:15:27;;;;;;;52.22;36.65;;;12.70;99.90;;;;;;5095861;28;20275;-68
2022/03/17 11:17:58;;;;;;;54.63;35.50;;;12.70;99.90;;;;;;5095800;28;20248;-68
2022/03/17 11:20:25;;;;;;;51.22;36.10;;;12.80;99.90;;;;;;5096833;28;20205;-68
2022/03/17 11:23:09;;;;;;;43.65;34.67;;;13.00;99.90;;;;;;5096227;28;20671;-68
2022/03/17 11:25:36;;;;;;;45.70;35.03;;;13.10;99.90;;;;;;5096418;28;20288;-68
2022/03/17 11:28:05;;;;;;;47.75;34.95;;;13.10;99.90;;;;;;5095739;28;20230;-68
2022/03/17 11:30:41;;;;;;;43.75;33.75;;;13.10;99.90;;;;;;5096107;28;20212;-68
2022/03/17 11:33:22;;;;;;;46.50;33.83;;;13.00;99.90;;;;;;5095926;28;20206;-68
2022/03/17 11:35:54;;;;;;;45.95;32.95;;;13.00;99.90;;;;;;5096005;28;20722;-68
2022/03/17 11:38:27;;;;;;;44.28;34.25;;;13.10;99.90;;;;;;5095846;28;20559;-68
2022/03/17 11:41:08;;;;;;;47.88;35.10;;;13.00;99.90;;;;;;5095883;28;20206;-68
2022/03/17 11:43:59;;;;;;;50.00;35.25;;;12.90;99.90;;;;;;5095349;28;20208;-67
2022/03/17 11:46:35;;;;;;;47.58;33.03;;;12.70;99.90;;;;;;5095737;28;20244;-68
2022/03/17 11:49:18;;;;;;;44.28;31.13;;;12.30;99.90;;;;;;5095540;28;20296;-67
2022/03/17 11:51:56;;;;;;;41.90;30.88;;;12.20;99.90;;;;;;5095619;28;20267;-67
2022/03/17 11:54:25;;;;;;;50.50;32.00;;;12.10;99.90;;;;;;5095203;28;20220;-67
2022/03/17 11:56:57;;;;;;;43.95;34.00;;;12.00;99.90;;;;;;5095291;28;20313;-68
2022/03/17 11:59:31;;;;;;;46.90;31.23;;;11.90;99.90;;;;;;5094235;28;20198;-68
2022/03/17 12:01:59;;;;;;;45.85;33.95;;;11.80;99.90;;;;;;5095482;28;20206;-68
2022/03/17 12:04:30;;;;;;;42.17;32.20;;;11.80;99.90;;;;;;5094986;28;20225;-68
2022/03/17 12:07:08;;;;;;;44.03;31.75;;;11.90;99.90;;;;;;5095646;28;20271;-68
2022/03/17 12:09:37;;;;;;;42.90;32.13;;;11.90;99.90;;;;;;5095152;28;20269;-68
2022/03/17 12:12:16;;;;;;;44.97;33.70;;;12.00;99.90;;;;;;5094972;28;20641;-68
2022/03/17 12:14:50;;;;;;;45.17;33.97;;;12.10;99.90;;;;;;5095001;28;20663;-68
2022/03/17 12:17:19;;;;;;;43.00;32.55;;;12.10;99.90;;;;;;5094662;28;20594;-68
2022/03/17 12:19:50;;;;;;;49.88;34.25;;;12.20;99.90;;;;;;5095066;28;20210;-68
2022/03/17 12:22:20;;;;;;;52.50;35.30;;;12.20;99.90;;;;;;5094977;28;20206;-68
2022/03/17 12:24:51;;;;;;;43.28;32.33;;;12.20;99.90;;;;;;5094851;28;20206;-68
2022/03/17 12:27:24;;;;;;;49.65;34.72;;;12.20;99.90;;;;;;5094468;28;20217;-67
2022/03/17 12:29:57;;;;;;;50.97;36.10;;;12.00;99.90;;;;;;5095249;28;20238;-67
2022/03/17 12:32:25;;;;;;;47.70;34.08;;;11.70;99.90;;;;;;5095125;28;20206;-67
2022/03/17 12:34:55;;;;;;;49.25;35.80;;;11.60;99.90;;;;;;5094541;28;20559;-68
2022/03/17 12:37:24;;;;;;;50.65;35.05;;;11.60;99.90;;;;;;5094741;28;20236;-67
2022/03/17 12:39:53;;;;;;;44.33;33.78;;;11.70;99.90;;;;;;5094883;28;20202;-68
2022/03/17 12:42:22;;;;;;;52.08;34.17;;;11.90;99.90;;;;;;5095116;28;20202;-68
2022/03/17 12:44:56;;;;;;;46.28;33.63;;;12.00;99.90;;;;;;5094139;28;20570;-68
2022/03/17 12:47:26;;;;;;;47.33;33.60;;;12.30;99.90;;;;;;5094633;28;20221;-68
2022/03/17 12:49:54;;;;;;;50.25;35.75;;;12.20;99.90;;;;;;5094598;28;20206;-68
2022/03/17 12:52:25;;;;;;;51.65;36.50;;;12.20;99.90;;;;;;5094643;28;20198;-68